createdAt,value
2018-04-01T00:00:01.957Z,98860.85
2018-04-01T00:02:28.806Z,98865.79
2018-04-01T00:04:56.031Z,98867.38
2018-04-01T00:07:22.900Z,98870.47
2018-04-01T00:09:49.744Z,98870.19
2018-04-01T00:12:16.617Z,98878.42
2018-04-01T00:14:44.557Z,98877.23
2018-04-01T00:17:11.392Z,98880.00
2018-04-01T00:19:38.266Z,98880.85
2018-04-01T00:22:05.154Z,98877.75
2018-04-01T00:24:32.028Z,98880.18
2018-04-01T00:26:58.859Z,98886.41
2018-04-01T00:29:26.080Z,98887.83
2018-04-01T00:31:52.960Z,98881.01
2018-04-01T00:34:19.797Z,98885.66
2018-04-01T00:36:46.641Z,98890.78
2018-04-01T00:39:14.323Z,98898.52
2018-04-01T00:41:41.141Z,98899.95
2018-04-01T00:44:07.986Z,98906.14
2018-04-01T00:46:34.832Z,98910.36
2018-04-01T00:49:01.698Z,98919.72
2018-04-01T00:51:28.513Z,98912.05
2018-04-01T00:53:56.797Z,98918.89
2018-04-01T00:56:24.485Z,98921.63
2018-04-01T00:58:51.340Z,98916.70
2018-04-01T01:01:19.305Z,98920.35
2018-04-01T01:03:46.189Z,98918.16
2018-04-01T01:06:13.042Z,98919.78
2018-04-01T01:08:39.888Z,98925.39
2018-04-01T01:11:07.969Z,98918.78
2018-04-01T01:13:35.000Z,98919.94
2018-04-01T01:16:01.880Z,98921.64
2018-04-01T01:18:28.751Z,98921.53
2018-04-01T01:20:56.365Z,98925.55
2018-04-01T01:23:23.206Z,98919.55
2018-04-01T01:25:50.066Z,98916.77
2018-04-01T01:28:16.911Z,98924.48
2018-04-01T01:30:44.141Z,98927.39
2018-04-01T01:33:10.983Z,98929.45
2018-04-01T01:35:37.828Z,98923.87
2018-04-01T01:38:04.996Z,98928.06
2018-04-01T01:40:31.857Z,98924.42
2018-04-01T01:42:58.721Z,98923.38
2018-04-01T01:45:26.728Z,98928.69
2018-04-01T01:47:53.565Z,98937.55
2018-04-01T01:50:21.022Z,98940.55
2018-04-01T01:52:48.156Z,98944.78
2018-04-01T01:55:15.012Z,98949.53
2018-04-01T01:57:41.873Z,98951.80
2018-04-01T02:00:08.712Z,98964.34
2018-04-01T02:02:35.542Z,98961.55
2018-04-01T02:05:02.608Z,98964.19
2018-04-01T02:07:30.027Z,98966.63
2018-04-01T02:09:57.646Z,98966.98
2018-04-01T02:12:25.693Z,98976.55
2018-04-01T02:14:52.536Z,98977.74
2018-04-01T02:17:19.725Z,98978.67
2018-04-01T02:19:46.533Z,98976.12
2018-04-01T02:22:13.512Z,98979.30
2018-04-01T02:24:40.354Z,98986.05
2018-04-01T02:27:07.227Z,98985.89
2018-04-01T02:29:34.081Z,98985.34
2018-04-01T02:32:01.470Z,98990.59
2018-04-01T02:34:28.312Z,98989.69
2018-04-01T02:36:55.203Z,98985.63
2018-04-01T02:39:22.054Z,98984.70
2018-04-01T02:41:48.938Z,98982.29
2018-04-01T02:44:16.651Z,98989.02
2018-04-01T02:46:44.245Z,98991.82
2018-04-01T02:49:11.696Z,98992.43
2018-04-01T02:51:38.571Z,98993.58
2018-04-01T02:54:05.594Z,98996.70
2018-04-01T02:56:33.928Z,98992.30
2018-04-01T02:59:00.785Z,98994.45
2018-04-01T03:01:27.786Z,98997.51
2018-04-01T03:03:54.643Z,98998.12
2018-04-01T03:06:21.507Z,98999.31
2018-04-01T03:08:48.387Z,99008.39
2018-04-01T03:11:15.478Z,99009.98
2018-04-01T03:13:43.566Z,99014.38
2018-04-01T03:16:10.611Z,99015.75
2018-04-01T03:18:37.480Z,99012.69
2018-04-01T03:21:04.347Z,99018.56
2018-04-01T03:23:31.214Z,99013.36
2018-04-01T03:25:58.063Z,99016.05
2018-04-01T03:28:24.921Z,99021.53
2018-04-01T03:30:51.862Z,99026.94
2018-04-01T03:33:18.718Z,99028.31
2018-04-01T03:35:45.598Z,99047.43
2018-04-01T03:38:12.457Z,99036.61
2018-04-01T03:40:39.304Z,99041.98
2018-04-01T03:43:06.972Z,99045.12
2018-04-01T03:45:33.962Z,99041.06
2018-04-01T03:48:00.994Z,99047.87
2018-04-01T03:50:27.837Z,99043.52
2018-04-01T03:52:54.847Z,99046.59
2018-04-01T03:55:21.732Z,99044.34
2018-04-01T03:57:48.606Z,99044.72
2018-04-01T04:00:15.512Z,99046.46
2018-04-01T04:02:42.361Z,99043.56
2018-04-01T04:05:09.220Z,99039.61
2018-04-01T04:07:36.097Z,99044.41
2018-04-01T04:10:02.986Z,99036.95
2018-04-01T04:12:29.790Z,99039.52
2018-04-01T04:14:57.210Z,99044.83
2018-04-01T04:17:24.610Z,99046.34
2018-04-01T04:19:51.457Z,99053.31
2018-04-01T04:22:18.372Z,99051.30
2018-04-01T04:24:47.890Z,99056.56
2018-04-01T04:27:14.731Z,99060.45
2018-04-01T04:29:41.594Z,99063.06
2018-04-01T04:32:08.519Z,99065.17
2018-04-01T04:34:35.647Z,99072.28
2018-04-01T04:37:02.518Z,99066.75
2018-04-01T04:39:29.380Z,99075.83
2018-04-01T04:41:57.000Z,99082.22
2018-04-01T04:44:24.364Z,99089.18
2018-04-01T04:46:51.216Z,99080.03
2018-04-01T04:49:18.057Z,99086.97
2018-04-01T04:51:44.916Z,99091.65
2018-04-01T04:54:11.768Z,99087.23
2018-04-01T04:56:38.752Z,99090.11
2018-04-01T04:59:06.829Z,99092.05
2018-04-01T05:01:33.943Z,99094.79
2018-04-01T05:04:00.829Z,99084.52
2018-04-01T05:06:28.126Z,99090.92
2018-04-01T05:08:54.941Z,99097.09
2018-04-01T05:11:25.807Z,99098.44
2018-04-01T05:13:56.418Z,99110.92
2018-04-01T05:16:23.365Z,99107.34
2018-04-01T05:18:50.220Z,99113.59
2018-04-01T05:21:17.056Z,99115.80
2018-04-01T05:23:43.897Z,99116.36
2018-04-01T05:26:13.168Z,99117.52
2018-04-01T05:28:40.040Z,99132.44
2018-04-01T05:31:06.896Z,99133.30
2018-04-01T05:33:33.729Z,99131.61
2018-04-01T05:36:00.580Z,99135.02
2018-04-01T05:38:27.602Z,99142.52
2018-04-01T05:40:55.172Z,99139.25
2018-04-01T05:43:22.527Z,99137.09
2018-04-01T05:45:49.818Z,99145.03
2018-04-01T05:48:16.672Z,99156.13
2018-04-01T05:50:43.654Z,99160.38
2018-04-01T05:53:10.514Z,99155.53
2018-04-01T05:55:37.361Z,99162.46
2018-04-01T05:58:04.503Z,99163.78
2018-04-01T06:00:31.346Z,99165.81
2018-04-01T06:02:58.504Z,99176.92
2018-04-01T06:05:25.340Z,99174.80
2018-04-01T06:07:52.364Z,99175.20
2018-04-01T06:10:25.754Z,99186.38
2018-04-01T06:15:41.698Z,99205.71
2018-04-01T06:18:08.685Z,99201.86
2018-04-01T06:20:35.710Z,99207.47
2018-04-01T06:23:04.106Z,99203.75
2018-04-01T06:25:30.944Z,99210.58
2018-04-01T06:27:57.882Z,99209.87
2018-04-01T06:30:24.756Z,99213.97
2018-04-01T06:32:51.625Z,99214.77
2018-04-01T06:35:18.478Z,99211.72
2018-04-01T06:37:45.330Z,99219.81
2018-04-01T06:40:12.206Z,99222.10
2018-04-01T06:42:39.057Z,99226.55
2018-04-01T06:45:08.097Z,99228.93
2018-04-01T06:47:34.950Z,99227.31
2018-04-01T06:50:01.822Z,99229.45
2018-04-01T06:52:28.932Z,99233.83
2018-04-01T06:54:55.792Z,99238.33
2018-04-01T06:57:22.633Z,99239.53
2018-04-01T06:59:50.500Z,99245.63
2018-04-01T07:02:17.545Z,99241.97
2018-04-01T07:04:44.447Z,99251.55
2018-04-01T07:07:11.292Z,99258.27
2018-04-01T07:09:38.188Z,99256.86
2018-04-01T07:12:05.041Z,99258.89
2018-04-01T07:14:32.680Z,99260.54
2018-04-01T07:16:59.556Z,99264.01
2018-04-01T07:19:27.276Z,99265.27
2018-04-01T07:21:54.140Z,99264.91
2018-04-01T07:24:21.030Z,99262.81
2018-04-01T07:26:49.076Z,99265.02
2018-04-01T07:29:16.082Z,99259.84
2018-04-01T07:31:43.104Z,99261.31
2018-04-01T07:34:09.960Z,99266.92
2018-04-01T07:36:37.072Z,99273.47
2018-04-01T07:39:03.906Z,99273.47
2018-04-01T07:41:30.779Z,99266.22
2018-04-01T07:43:58.492Z,99273.41
2018-04-01T07:46:25.394Z,99290.61
2018-04-01T07:48:52.254Z,99282.03
2018-04-01T07:51:19.250Z,99284.19
2018-04-01T07:53:46.125Z,99288.91
2018-04-01T07:56:13.081Z,99286.60
2018-04-01T07:58:40.274Z,99294.95
2018-04-01T08:01:07.136Z,99308.53
2018-04-01T08:03:34.004Z,99308.71
2018-04-01T08:06:00.885Z,99295.41
2018-04-01T08:08:28.445Z,99303.01
2018-04-01T08:10:55.608Z,99297.42
2018-04-01T08:13:22.454Z,99303.67
2018-04-01T08:15:49.298Z,99309.09
2018-04-01T08:18:16.648Z,99307.87
2018-04-01T08:20:43.791Z,99309.28
2018-04-01T08:23:10.680Z,99313.45
2018-04-01T08:25:38.026Z,99315.84
2018-04-01T08:28:04.891Z,99315.07
2018-04-01T08:30:32.426Z,99314.91
2018-04-01T08:32:59.473Z,99318.61
2018-04-01T08:35:26.338Z,99322.86
2018-04-01T08:37:53.219Z,99327.70
2018-04-01T08:40:20.113Z,99325.98
2018-04-01T08:42:47.364Z,99321.39
2018-04-01T08:45:14.250Z,99318.58
2018-04-01T08:47:41.296Z,99319.95
2018-04-01T08:50:08.818Z,99314.05
2018-04-01T08:52:35.683Z,99319.56
2018-04-01T08:55:02.687Z,99321.03
2018-04-01T08:57:29.521Z,99328.02
2018-04-01T08:59:57.152Z,99344.91
2018-04-01T09:02:24.020Z,99327.55
2018-04-01T09:04:51.159Z,99340.67
2018-04-01T09:07:18.017Z,99343.82
2018-04-01T09:09:44.885Z,99347.88
2018-04-01T09:12:12.840Z,99351.20
2018-04-01T09:14:39.684Z,99343.80
2018-04-01T09:17:07.072Z,99343.69
2018-04-01T09:19:34.134Z,99341.09
2018-04-01T09:22:01.093Z,99340.89
2018-04-01T09:24:28.706Z,99341.49
2018-04-01T09:26:55.599Z,99342.10
2018-04-01T09:29:22.495Z,99344.23
2018-04-01T09:31:49.450Z,99359.58
2018-04-01T09:34:17.149Z,99350.48
2018-04-01T09:36:43.984Z,99349.32
2018-04-01T09:39:10.884Z,99341.57
2018-04-01T09:41:38.509Z,99349.16
2018-04-01T09:44:05.452Z,99351.23
2018-04-01T09:46:32.632Z,99351.80
2018-04-01T09:48:59.489Z,99341.27
2018-04-01T09:51:26.357Z,99356.13
2018-04-01T09:53:53.216Z,99369.71
2018-04-01T09:56:20.099Z,99360.92
2018-04-01T09:58:46.963Z,99344.16
2018-04-01T10:01:14.340Z,99346.96
2018-04-01T10:03:41.881Z,99357.83
2018-04-01T10:06:09.579Z,99356.87
2018-04-01T10:08:37.120Z,99362.69
2018-04-01T10:11:04.512Z,99355.05
2018-04-01T10:13:31.984Z,99358.51
2018-04-01T10:15:59.521Z,99352.61
2018-04-01T10:18:27.887Z,99346.03
2018-04-01T10:20:55.331Z,99358.30
2018-04-01T10:23:22.748Z,99352.53
2018-04-01T10:25:50.354Z,99351.48
2018-04-01T10:28:17.752Z,99358.58
2018-04-01T10:30:45.146Z,99350.94
2018-04-01T10:33:12.737Z,99339.30
2018-04-01T10:35:40.148Z,99346.63
2018-04-01T10:38:07.527Z,99347.34
2018-04-01T10:40:34.937Z,99349.36
2018-04-01T10:43:02.367Z,99365.68
2018-04-01T10:45:29.734Z,99395.59
2018-04-01T10:47:57.124Z,99411.81
2018-04-01T10:50:24.639Z,99418.38
2018-04-01T10:52:52.013Z,99423.27
2018-04-01T10:55:18.873Z,99436.26
2018-04-01T10:57:45.705Z,99430.55
2018-04-01T11:00:13.787Z,99439.17
2018-04-01T11:02:40.710Z,99434.29
2018-04-01T11:05:08.766Z,99431.38
2018-04-01T11:07:36.737Z,99436.22
2018-04-01T11:10:03.591Z,99441.04
2018-04-01T11:12:30.426Z,99438.33
2018-04-01T11:14:57.296Z,99432.77
2018-04-01T11:17:24.153Z,99433.05
2018-04-01T11:19:51.008Z,99445.91
2018-04-01T11:22:17.881Z,99443.06
2018-04-01T11:24:44.770Z,99451.20
2018-04-01T11:27:11.628Z,99449.79
2018-04-01T11:29:38.617Z,99445.23
2018-04-01T11:32:05.506Z,99449.43
2018-04-01T11:34:32.526Z,99446.97
2018-04-01T11:36:59.444Z,99451.58
2018-04-01T11:39:26.324Z,99443.28
2018-04-01T11:41:53.184Z,99449.29
2018-04-01T11:44:22.486Z,99458.27
2018-04-01T11:46:49.564Z,99447.92
2018-04-01T11:49:16.508Z,99454.10
2018-04-01T11:51:43.521Z,99457.29
2018-04-01T11:54:10.452Z,99455.77
2018-04-01T11:56:39.548Z,99463.25
2018-04-01T11:59:06.479Z,99457.30
2018-04-01T12:01:33.330Z,99456.39
2018-04-01T12:04:00.213Z,99451.52
2018-04-01T12:06:27.988Z,99450.81
2018-04-01T12:08:54.877Z,99456.52
2018-04-01T12:11:21.724Z,99449.42
2018-04-01T12:13:49.154Z,99452.52
2018-04-01T12:16:16.017Z,99436.14
2018-04-01T12:18:42.995Z,99444.52
2018-04-01T12:21:09.849Z,99433.41
2018-04-01T12:23:36.772Z,99431.86
2018-04-01T12:26:05.259Z,99432.27
2018-04-01T12:28:32.115Z,99433.28
2018-04-01T12:30:59.845Z,99446.38
2018-04-01T12:33:27.144Z,99454.52
2018-04-01T12:35:54.057Z,99466.34
2018-04-01T12:38:20.907Z,99467.42
2018-04-01T12:40:47.804Z,99473.22
2018-04-01T12:43:14.683Z,99480.47
2018-04-01T12:45:41.585Z,99469.86
2018-04-01T12:48:08.491Z,99480.95
2018-04-01T12:50:35.353Z,99477.08
2018-04-01T12:53:02.211Z,99464.38
2018-04-01T12:55:29.939Z,99460.18
2018-04-01T12:57:56.806Z,99461.75
2018-04-01T13:00:23.686Z,99455.77
2018-04-01T13:02:50.569Z,99464.94
2018-04-01T13:05:17.408Z,99450.48
2018-04-01T13:07:44.626Z,99458.79
2018-04-01T13:10:11.457Z,99463.16
2018-04-01T13:12:38.485Z,99455.97
2018-04-01T13:15:05.333Z,99462.29
2018-04-01T13:17:32.221Z,99451.95
2018-04-01T13:19:59.789Z,99450.09
2018-04-01T13:22:26.640Z,99456.75
2018-04-01T13:24:53.604Z,99465.59
2018-04-01T13:27:20.466Z,99468.14
2018-04-01T13:29:47.347Z,99451.69
2018-04-01T13:32:14.265Z,99455.80
2018-04-01T13:34:41.155Z,99455.28
2018-04-01T13:37:08.074Z,99469.98
2018-04-01T13:39:34.990Z,99478.65
2018-04-01T13:42:01.850Z,99492.18
2018-04-01T13:44:28.699Z,99483.88
2018-04-01T13:46:55.548Z,99483.16
2018-04-01T13:49:22.439Z,99492.63
2018-04-01T13:51:49.454Z,99486.30
2018-04-01T13:54:16.349Z,99488.78
2018-04-01T13:56:43.599Z,99488.80
2018-04-01T13:59:10.532Z,99485.91
2018-04-01T14:01:37.393Z,99493.24
2018-04-01T14:04:04.232Z,99493.86
2018-04-01T14:06:31.082Z,99511.95
2018-04-01T14:08:57.981Z,99490.82
2018-04-01T14:11:25.932Z,99497.34
2018-04-01T14:13:52.844Z,99500.06
2018-04-01T14:16:19.701Z,99512.70
2018-04-01T14:18:46.544Z,99523.02
2018-04-01T14:21:13.391Z,99519.73
2018-04-01T14:23:40.270Z,99528.50
2018-04-01T14:26:07.602Z,99530.98
2018-04-01T14:28:34.497Z,99535.25
2018-04-01T14:31:01.349Z,99544.24
2018-04-01T14:33:28.213Z,99551.95
2018-04-01T14:35:55.081Z,99551.40
2018-04-01T14:38:21.954Z,99560.70
2018-04-01T14:40:48.907Z,99564.58
2018-04-01T14:43:15.827Z,99549.25
2018-04-01T14:45:42.697Z,99551.98
2018-04-01T14:48:09.541Z,99565.91
2018-04-01T14:50:37.652Z,99565.97
2018-04-01T14:53:04.620Z,99572.23
2018-04-01T14:55:31.728Z,99577.44
2018-04-01T14:57:58.604Z,99573.75
2018-04-01T15:00:25.457Z,99571.95
2018-04-01T15:02:52.330Z,99572.97
2018-04-01T15:05:19.176Z,99574.42
2018-04-01T15:07:46.029Z,99573.02
2018-04-01T15:10:12.877Z,99582.44
2018-04-01T15:12:39.724Z,99592.78
2018-04-01T15:15:07.635Z,99591.16
2018-04-01T15:17:34.465Z,99579.59
2018-04-01T15:20:01.398Z,99582.30
2018-04-01T15:22:28.252Z,99586.30
2018-04-01T15:24:55.126Z,99566.77
2018-04-01T15:27:22.091Z,99577.77
2018-04-01T15:29:51.009Z,99580.66
2018-04-01T15:32:17.853Z,99584.57
2018-04-01T15:34:44.729Z,99583.11
2018-04-01T15:37:11.634Z,99589.77
2018-04-01T15:39:38.721Z,99587.81
2018-04-01T15:42:05.720Z,99592.92
2018-04-01T15:44:32.808Z,99599.00
2018-04-01T15:47:00.468Z,99600.23
2018-04-01T15:49:27.335Z,99605.09
2018-04-01T15:51:54.222Z,99604.66
2018-04-01T15:54:21.090Z,99611.38
2018-04-01T15:56:47.961Z,99607.08
2018-04-01T15:59:14.848Z,99611.10
2018-04-01T16:01:41.885Z,99614.20
2018-04-01T16:04:09.308Z,99622.94
2018-04-01T16:06:37.144Z,99619.92
2018-04-01T16:09:04.021Z,99624.17
2018-04-01T16:11:30.979Z,99629.94
2018-04-01T16:13:57.797Z,99631.14
2018-04-01T16:16:24.664Z,99638.98
2018-04-01T16:18:51.884Z,99640.43
2018-04-01T16:21:18.831Z,99650.31
2018-04-01T16:23:45.679Z,99644.38
2018-04-01T16:26:12.698Z,99655.05
2018-04-01T16:28:39.696Z,99655.14
2018-04-01T16:31:06.652Z,99657.73
2018-04-01T16:33:33.546Z,99657.30
2018-04-01T16:36:00.748Z,99661.60
2018-04-01T16:38:27.642Z,99672.90
2018-04-01T16:40:54.574Z,99674.42
2018-04-01T16:43:21.476Z,99681.70
2018-04-01T16:45:48.355Z,99679.80
2018-04-01T16:48:15.229Z,99677.39
2018-04-01T16:50:42.095Z,99679.90
2018-04-01T16:53:08.966Z,99686.69
2018-04-01T16:55:35.837Z,99692.22
2018-04-01T16:58:02.709Z,99693.02
2018-04-01T17:00:29.675Z,99699.30
2018-04-01T17:02:57.207Z,99704.48
2018-04-01T17:05:24.680Z,99712.92
2018-04-01T17:07:51.788Z,99712.95
2018-04-01T17:10:18.672Z,99720.52
2018-04-01T17:12:45.548Z,99721.11
2018-04-01T17:15:12.993Z,99724.67
2018-04-01T17:17:40.351Z,99724.14
2018-04-01T17:20:07.788Z,99726.41
2018-04-01T17:22:34.622Z,99729.74
2018-04-01T17:25:01.671Z,99736.25
2018-04-01T17:27:28.893Z,99734.60
2018-04-01T17:29:57.151Z,99731.77
2018-04-01T17:32:23.997Z,99741.27
2018-04-01T17:34:50.922Z,99742.53
2018-04-01T17:37:17.784Z,99745.75
2018-04-01T17:39:44.692Z,99738.20
2018-04-01T17:42:11.677Z,99745.59
2018-04-01T17:44:38.667Z,99746.36
2018-04-01T17:47:05.621Z,99748.41
2018-04-01T17:49:33.343Z,99753.34
2018-04-01T17:52:01.048Z,99754.57
2018-04-01T17:54:27.924Z,99756.61
2018-04-01T17:56:54.781Z,99759.95
2018-04-01T17:59:21.695Z,99762.32
2018-04-01T18:01:48.540Z,99763.11
2018-04-01T18:04:15.392Z,99765.24
2018-04-01T18:06:42.274Z,99764.16
2018-04-01T18:09:09.181Z,99775.47
2018-04-01T18:11:36.044Z,99776.67
2018-04-01T18:14:02.895Z,99779.69
2018-04-01T18:16:29.792Z,99781.10
2018-04-01T18:18:56.651Z,99787.66
2018-04-01T18:21:23.509Z,99786.70
2018-04-01T18:23:50.688Z,99787.95
2018-04-01T18:26:17.577Z,99792.40
2018-04-01T18:28:44.458Z,99798.77
2018-04-01T18:31:11.351Z,99804.17
2018-04-01T18:33:38.238Z,99809.74
2018-04-01T18:36:05.088Z,99814.55
2018-04-01T18:38:32.772Z,99810.05
2018-04-01T18:40:59.632Z,99811.55
2018-04-01T18:43:26.508Z,99821.92
2018-04-01T18:45:53.380Z,99817.48
2018-04-01T18:48:20.267Z,99819.59
2018-04-01T18:50:47.175Z,99827.68
2018-04-01T18:53:14.088Z,99829.04
2018-04-01T18:55:40.968Z,99841.70
2018-04-01T18:58:07.874Z,99847.76
2018-04-01T19:00:35.063Z,99846.09
2018-04-01T19:03:01.938Z,99840.07
2018-04-01T19:05:29.043Z,99844.71
2018-04-01T19:07:56.823Z,99842.72
2018-04-01T19:10:23.746Z,99847.80
2018-04-01T19:12:50.665Z,99856.34
2018-04-01T19:15:17.552Z,99861.52
2018-04-01T19:17:44.949Z,99868.12
2018-04-01T19:20:12.481Z,99875.02
2018-04-01T19:22:39.891Z,99877.82
2018-04-01T19:25:07.316Z,99883.59
2018-04-01T19:27:34.692Z,99888.77
2018-04-01T19:30:02.279Z,99894.58
2018-04-01T19:32:29.665Z,99904.41
2018-04-01T19:34:57.104Z,99904.61
2018-04-01T19:37:24.562Z,99910.98
2018-04-01T19:39:51.964Z,99914.34
2018-04-01T19:42:19.352Z,99915.17
2018-04-01T19:44:46.793Z,99920.22
2018-04-01T19:47:14.206Z,99927.44
2018-04-01T19:49:41.636Z,99931.37
2018-04-01T19:52:09.126Z,99946.08
2018-04-01T19:54:36.582Z,99944.14
2018-04-01T19:57:03.985Z,99946.73
2018-04-01T19:59:33.476Z,99945.92
2018-04-01T20:02:00.883Z,99945.15
2018-04-01T20:04:28.446Z,99946.72
2018-04-01T20:06:56.883Z,99948.22
2018-04-01T20:09:24.968Z,99950.39
2018-04-01T20:11:52.428Z,99946.22
2018-04-01T20:14:19.913Z,99946.73
2018-04-01T20:16:47.454Z,99953.05
2018-04-01T20:19:14.898Z,99955.22
2018-04-01T20:21:42.335Z,99951.51
2018-04-01T20:24:09.734Z,99957.16
2018-04-01T20:26:38.108Z,99954.28
2018-04-01T20:29:05.576Z,99962.21
2018-04-01T20:31:32.981Z,99962.52
2018-04-01T20:34:00.376Z,99957.61
2018-04-01T20:36:27.792Z,99960.33
2018-04-01T20:38:55.179Z,99961.59
2018-04-01T20:41:22.607Z,99964.76
2018-04-01T20:43:50.426Z,99963.53
2018-04-01T20:46:21.119Z,99964.48
2018-04-01T20:48:48.917Z,99966.36
2018-04-01T20:51:16.342Z,99967.59
2018-04-01T20:53:43.760Z,99967.41
2018-04-01T20:56:11.162Z,99972.34
2018-04-01T20:58:38.716Z,99973.97
2018-04-01T21:01:06.321Z,99976.38
2018-04-01T21:03:34.041Z,99978.13
2018-04-01T21:06:02.759Z,99979.33
2018-04-01T21:08:30.196Z,99976.50
2018-04-01T21:10:58.193Z,99975.78
2018-04-01T21:13:25.899Z,99972.48
2018-04-01T21:15:53.418Z,99975.74
2018-04-01T21:18:21.239Z,99973.13
2018-04-01T21:20:49.073Z,99985.02
2018-04-01T21:23:16.531Z,99971.94
2018-04-01T21:25:44.137Z,99981.99
2018-04-01T21:28:11.733Z,99989.68
2018-04-01T21:30:40.494Z,99986.61
2018-04-01T21:33:08.950Z,99988.81
2018-04-01T21:35:36.442Z,99983.13
2018-04-01T21:38:03.896Z,99979.67
2018-04-01T21:40:31.434Z,99977.77
2018-04-01T21:42:58.881Z,99989.70
2018-04-01T21:45:26.345Z,99987.63
2018-04-01T21:47:53.801Z,99994.41
2018-04-01T21:50:22.007Z,99986.77
2018-04-01T21:52:49.507Z,99993.64
2018-04-01T21:55:16.920Z,99997.48
2018-04-01T21:57:44.424Z,99993.92
2018-04-01T22:00:11.827Z,99993.28
2018-04-01T22:02:39.228Z,99987.97
2018-04-01T22:05:06.784Z,99984.48
2018-04-01T22:07:35.807Z,99985.22
2018-04-01T22:10:03.547Z,99987.89
2018-04-01T22:12:30.972Z,99987.49
2018-04-01T22:14:58.379Z,99996.81
2018-04-01T22:17:26.332Z,99986.25
2018-04-01T22:19:53.751Z,99993.98
2018-04-01T22:22:21.174Z,99985.01
2018-04-01T22:24:48.561Z,99989.75
2018-04-01T22:27:16.972Z,99990.88
2018-04-01T22:29:44.400Z,99991.72
2018-04-01T22:32:11.837Z,99989.14
2018-04-01T22:34:39.242Z,99986.14
2018-04-01T22:37:06.669Z,99995.53
2018-04-01T22:39:34.137Z,99994.41
2018-04-01T22:42:02.013Z,99998.64
2018-04-01T22:44:29.396Z,99994.11
2018-04-01T22:46:57.804Z,99991.98
2018-04-01T22:49:25.206Z,99993.92
2018-04-01T22:51:52.615Z,99988.07
2018-04-01T22:54:20.014Z,99986.29
2018-04-01T22:56:47.432Z,99990.20
2018-04-01T22:59:14.821Z,99989.70
2018-04-01T23:01:42.536Z,99986.77
2018-04-01T23:04:09.944Z,99984.52
2018-04-01T23:06:37.340Z,99988.92
2018-04-01T23:09:04.756Z,99994.93
2018-04-01T23:11:33.119Z,100000.80
2018-04-01T23:14:00.611Z,99998.91
2018-04-01T23:16:28.023Z,100003.16
2018-04-01T23:18:55.424Z,100000.98
2018-04-01T23:21:22.831Z,100002.89
2018-04-01T23:23:50.229Z,100001.45
2018-04-01T23:26:17.669Z,100002.78
2018-04-01T23:28:45.130Z,100000.25
2018-04-01T23:31:12.524Z,99998.92
2018-04-01T23:33:39.938Z,99996.76
2018-04-01T23:36:07.337Z,99996.52
2018-04-01T23:38:34.816Z,99998.33
2018-04-01T23:41:03.271Z,99997.47
2018-04-01T23:43:30.662Z,99999.70
2018-04-01T23:45:58.174Z,99995.92
2018-04-01T23:48:25.711Z,99994.45
2018-04-01T23:50:53.103Z,99994.42
2018-04-01T23:53:20.658Z,99994.77
2018-04-01T23:55:48.056Z,99991.08
2018-04-01T23:58:16.633Z,99986.03
